Pinecreek, Minnesota
Current Conditions -  °F | °C
As of 7:34 PM on Friday 19 Dec 2014 (Local Time) from KROX Reporting Station
Haze Haze  
Wind Chill: 19°   Ceiling: 500
Heat Index: 27°   Visibility: 2.5mi
Dew Point: 21°   Wind: 7mph
Humidity: 80%   Direction: 140°SE
Pressure: 30.05"   Gusts: NA
Location:  48.7499°N, 95.6399°W
Report Text: KROX 200134Z AUTO 14006KT 2 1/2SM HZ OVC005 M03/M06 A3005 RMK AO2
Loading
Personal Weather Stations






























Interactive Weather Map New forecast layout! Learn more

10-Day Weather Forecast

Advertisements
Track Severe Weather on mobile